createdAt,value
2022-08-29T00:02:37.457Z,0.35
2022-08-29T00:07:38.961Z,0.57
2022-08-29T00:12:40.528Z,0.40
2022-08-29T00:17:42.461Z,0.47
2022-08-29T00:22:44.301Z,0.50
2022-08-29T00:27:49.640Z,0.40
2022-08-29T00:32:51.986Z,0.40
2022-08-29T00:37:54.824Z,0.45
2022-08-29T00:42:56.652Z,0.30
2022-08-29T00:48:02.688Z,0.30
2022-08-29T00:53:05.517Z,0.30
2022-08-29T00:58:18.604Z,0.20
2022-08-29T01:03:20.472Z,0.40
2022-08-29T01:08:21.977Z,0.50
2022-08-29T01:13:25.914Z,0.20
2022-08-29T01:18:29.218Z,0.30
2022-08-29T01:23:52.049Z,0.20
2022-08-29T01:28:54.012Z,0.32
2022-08-29T01:33:57.642Z,0.40
2022-08-29T01:39:00.082Z,0.40
2022-08-29T01:44:02.029Z,0.20
2022-08-29T01:49:04.429Z,0.50
2022-08-29T01:54:07.370Z,0.30
2022-08-29T01:59:10.954Z,0.30
2022-08-29T02:04:12.420Z,0.30
2022-08-29T02:09:13.975Z,0.30
2022-08-29T02:14:19.687Z,0.40
2022-08-29T02:19:21.365Z,0.32
2022-08-29T02:24:25.780Z,0.30
2022-08-29T02:29:37.367Z,0.30
2022-08-29T02:34:43.273Z,0.47
2022-08-29T02:39:46.378Z,0.40
2022-08-29T02:44:47.925Z,0.40
2022-08-29T02:49:49.401Z,0.25
2022-08-29T02:54:51.249Z,0.50
2022-08-29T02:59:52.873Z,0.55
2022-08-29T03:04:54.391Z,0.50
2022-08-29T03:09:55.960Z,0.57
2022-08-29T03:14:57.625Z,0.40
2022-08-29T03:19:59.194Z,0.40
2022-08-29T03:25:03.823Z,0.60
2022-08-29T03:30:06.221Z,0.40
2022-08-29T03:35:08.761Z,0.40
2022-08-29T03:40:10.727Z,0.60
2022-08-29T03:45:14.122Z,0.57
2022-08-29T03:50:16.145Z,0.40
2022-08-29T03:55:18.114Z,0.60
2022-08-29T04:00:19.846Z,0.43
2022-08-29T04:05:21.929Z,0.40
2022-08-29T04:10:37.657Z,0.70
2022-08-29T04:15:40.814Z,0.40
2022-08-29T04:20:45.110Z,0.70
2022-08-29T04:25:46.740Z,0.50
2022-08-29T04:30:51.763Z,0.90
2022-08-29T04:35:54.458Z,0.65
2022-08-29T04:40:56.421Z,0.60
2022-08-29T04:45:57.996Z,0.70
2022-08-29T04:51:01.602Z,0.50
2022-08-29T04:56:03.460Z,0.73
2022-08-29T05:01:05.177Z,0.65
2022-08-29T05:06:08.261Z,0.60
2022-08-29T05:11:11.440Z,0.63
2022-08-29T05:16:14.050Z,0.75
2022-08-29T05:21:23.745Z,0.70
2022-08-29T05:26:32.137Z,0.70
2022-08-29T05:31:33.840Z,0.52
2022-08-29T05:36:35.367Z,1.00
2022-08-29T05:41:38.541Z,0.52
2022-08-29T05:46:41.212Z,0.50
2022-08-29T05:51:43.107Z,0.70
2022-08-29T05:56:44.794Z,0.65
2022-08-29T06:01:47.232Z,0.55
2022-08-29T06:06:50.779Z,0.65
2022-08-29T06:11:57.684Z,0.80
2022-08-29T06:16:59.341Z,0.70
2022-08-29T06:22:03.345Z,0.60
2022-08-29T06:27:11.081Z,0.75
2022-08-29T06:32:12.912Z,0.30
2022-08-29T06:37:14.532Z,0.60
2022-08-29T06:42:18.872Z,0.75
2022-08-29T06:47:20.413Z,0.80
2022-08-29T06:52:21.878Z,0.60
2022-08-29T06:57:23.346Z,0.80
2022-08-29T07:02:24.832Z,0.75
2022-08-29T07:07:26.348Z,0.93
2022-08-29T07:12:27.850Z,0.70
2022-08-29T07:17:30.149Z,0.80
2022-08-29T07:22:33.974Z,1.25
2022-08-29T07:27:35.486Z,0.43
2022-08-29T07:32:36.982Z,0.77
2022-08-29T07:37:38.850Z,0.90
2022-08-29T07:42:40.485Z,0.65
2022-08-29T07:47:42.021Z,0.90
2022-08-29T07:52:43.640Z,0.82
2022-08-29T07:57:48.423Z,0.90
2022-08-29T08:02:50.072Z,0.55
2022-08-29T08:07:55.524Z,1.00
2022-08-29T08:12:57.817Z,0.55
2022-08-29T08:17:59.300Z,0.70
2022-08-29T08:23:00.802Z,0.50
2022-08-29T08:28:02.377Z,0.60
2022-08-29T08:33:04.001Z,0.68
2022-08-29T08:38:06.165Z,0.50
2022-08-29T08:43:08.873Z,0.45
2022-08-29T08:48:18.526Z,0.60
2022-08-29T08:53:22.495Z,0.70
2022-08-29T08:58:42.774Z,0.70
2022-08-29T09:03:48.853Z,0.55
2022-08-29T09:09:10.357Z,0.47
2022-08-29T09:14:26.589Z,0.70
2022-08-29T09:19:28.119Z,0.55
2022-08-29T09:24:34.938Z,0.50
2022-08-29T09:29:37.370Z,0.82
2022-08-29T09:35:06.752Z,0.45
2022-08-29T09:40:10.729Z,0.45
2022-08-29T09:45:18.879Z,0.50
2022-08-29T09:50:24.677Z,0.75
2022-08-29T09:55:31.876Z,0.40
2022-08-29T10:00:35.261Z,0.47
2022-08-29T10:05:46.800Z,0.40
2022-08-29T10:10:51.777Z,0.98
2022-08-29T10:16:08.560Z,0.40
2022-08-29T10:21:24.466Z,0.38
2022-08-29T10:26:41.538Z,0.55
2022-08-29T10:31:59.948Z,0.50
2022-08-29T10:37:07.297Z,0.65
2022-08-29T10:42:12.321Z,0.38
2022-08-29T10:47:16.890Z,0.95
2022-08-29T10:52:27.558Z,0.75
2022-08-29T10:57:47.894Z,0.55
2022-08-29T11:02:55.590Z,0.50
2022-08-29T11:08:01.526Z,0.30
2022-08-29T11:13:08.274Z,0.60
2022-08-29T11:18:15.527Z,0.60
2022-08-29T11:23:46.767Z,0.30
2022-08-29T11:28:57.574Z,0.25
2022-08-29T11:34:17.610Z,0.22
2022-08-29T11:39:25.053Z,0.43
2022-08-29T11:44:29.540Z,0.45
2022-08-29T11:49:32.129Z,0.35
2022-08-29T11:54:37.080Z,0.40
2022-08-29T11:59:54.717Z,0.43
2022-08-29T12:04:56.345Z,0.50
2022-08-29T12:09:59.585Z,0.43
2022-08-29T12:15:01.534Z,0.30
2022-08-29T12:20:07.172Z,0.43
2022-08-29T12:25:35.042Z,0.40
2022-08-29T12:30:41.628Z,0.30
2022-08-29T12:36:02.294Z,0.30
2022-08-29T12:41:22.605Z,0.45
2022-08-29T12:46:28.181Z,0.20
2022-08-29T12:51:34.717Z,0.30
2022-08-29T12:56:38.473Z,0.30
2022-08-29T13:01:40.309Z,0.40
2022-08-29T13:07:00.576Z,0.40
2022-08-29T13:12:08.249Z,0.32
2022-08-29T13:17:13.049Z,0.30
2022-08-29T13:22:14.547Z,0.40
2022-08-29T13:27:20.093Z,0.40
2022-08-29T13:32:23.558Z,0.20
2022-08-29T13:37:32.585Z,0.50
2022-08-29T13:42:34.131Z,0.30
2022-08-29T13:47:40.516Z,0.10
2022-08-29T13:52:42.009Z,0.35
2022-08-29T13:57:44.042Z,0.25
2022-08-29T14:02:45.810Z,0.40
2022-08-29T14:07:47.437Z,0.40
2022-08-29T14:12:48.914Z,0.40
2022-08-29T14:17:50.403Z,0.30
2022-08-29T14:22:52.218Z,0.45
2022-08-29T14:27:53.769Z,0.22
2022-08-29T14:32:55.372Z,0.35
2022-08-29T14:37:57.024Z,0.30
2022-08-29T14:42:58.802Z,0.20
2022-08-29T14:48:00.412Z,0.50
2022-08-29T14:53:01.953Z,0.20
2022-08-29T14:58:03.913Z,0.20
2022-08-29T15:03:05.481Z,0.22
2022-08-29T15:08:07.123Z,0.20
2022-08-29T15:13:08.656Z,0.13
2022-08-29T15:18:20.314Z,0.22
2022-08-29T15:23:33.958Z,0.20
2022-08-29T15:28:35.469Z,0.30
2022-08-29T15:33:37.026Z,0.20
2022-08-29T15:38:38.685Z,0.20
2022-08-29T15:43:40.337Z,0.28
2022-08-29T15:48:41.886Z,0.45
2022-08-29T15:53:43.430Z,0.20
2022-08-29T15:58:45.105Z,0.15
2022-08-29T16:03:46.975Z,0.50
2022-08-29T16:08:48.521Z,0.40
2022-08-29T16:14:15.656Z,0.10
2022-08-29T16:19:20.620Z,0.10
2022-08-29T16:24:24.124Z,0.20
2022-08-29T16:29:26.870Z,0.30
2022-08-29T16:34:29.015Z,0.30
2022-08-29T16:39:30.624Z,0.20
2022-08-29T16:44:33.315Z,0.17
2022-08-29T16:49:35.181Z,0.25
2022-08-29T16:54:36.715Z,0.20
2022-08-29T16:59:38.266Z,0.20
2022-08-29T17:04:41.190Z,0.15
2022-08-29T17:09:42.671Z,0.10
2022-08-29T17:14:44.129Z,0.10
2022-08-29T17:19:46.686Z,0.10
2022-08-29T17:24:48.290Z,0.40
2022-08-29T17:29:49.801Z,0.28
2022-08-29T17:34:51.334Z,0.30
2022-08-29T17:39:52.847Z,0.40
2022-08-29T17:44:55.932Z,0.20
2022-08-29T17:49:57.488Z,0.10
2022-08-29T17:55:00.863Z,0.20
2022-08-29T18:00:06.009Z,0.40
2022-08-29T18:05:10.201Z,0.22
2022-08-29T18:10:13.157Z,0.08
2022-08-29T18:15:15.276Z,0.20
2022-08-29T18:20:21.589Z,0.10
2022-08-29T18:25:23.113Z,0.20
2022-08-29T18:30:24.677Z,0.25
2022-08-29T18:35:26.193Z,0.10
2022-08-29T18:40:27.874Z,0.17
2022-08-29T18:45:29.475Z,0.20
2022-08-29T18:50:36.907Z,0.10
2022-08-29T18:55:39.050Z,0.13
2022-08-29T19:00:42.909Z,0.20
2022-08-29T19:05:49.708Z,0.20
2022-08-29T19:10:55.229Z,0.30
2022-08-29T19:15:58.362Z,0.20
2022-08-29T19:21:03.280Z,0.10
2022-08-29T19:26:08.173Z,0.20
2022-08-29T19:31:10.309Z,0.20
2022-08-29T19:36:12.442Z,0.75
2022-08-29T19:41:14.228Z,0.05
2022-08-29T19:46:18.222Z,0.38
2022-08-29T19:51:24.373Z,0.20
2022-08-29T19:56:26.944Z,0.15
2022-08-29T20:01:29.290Z,0.30
2022-08-29T20:06:31.027Z,0.20
2022-08-29T20:11:32.828Z,0.08
2022-08-29T20:16:45.277Z,0.20
2022-08-29T20:21:47.310Z,0.00
2022-08-29T20:26:49.711Z,0.45
2022-08-29T20:31:51.276Z,0.10
2022-08-29T20:37:14.057Z,0.30
2022-08-29T20:42:16.832Z,0.22
2022-08-29T20:47:19.181Z,0.00
2022-08-29T20:52:22.085Z,0.15
2022-08-29T20:57:23.868Z,0.15
2022-08-29T21:02:43.831Z,0.10
2022-08-29T21:07:47.148Z,0.20
2022-08-29T21:12:48.730Z,0.10
2022-08-29T21:17:50.229Z,0.03
2022-08-29T21:22:51.778Z,0.17
2022-08-29T21:27:53.320Z,0.15
2022-08-29T21:32:55.318Z,0.20
2022-08-29T21:37:56.777Z,0.20
2022-08-29T21:42:58.227Z,0.20
2022-08-29T21:47:59.826Z,0.20
2022-08-29T21:53:01.339Z,0.30
2022-08-29T21:58:02.849Z,0.20
2022-08-29T22:03:05.917Z,0.15
2022-08-29T22:08:07.582Z,0.17
2022-08-29T22:13:15.618Z,0.20
2022-08-29T22:18:17.998Z,0.20
2022-08-29T22:23:20.543Z,0.25
2022-08-29T22:28:22.382Z,0.10
2022-08-29T22:33:23.850Z,0.40
2022-08-29T22:38:25.328Z,0.10
2022-08-29T22:43:26.834Z,0.20
2022-08-29T22:48:28.973Z,0.20
2022-08-29T22:53:30.453Z,0.20
2022-08-29T22:58:32.063Z,0.20
2022-08-29T23:03:34.274Z,0.15
2022-08-29T23:08:35.762Z,0.10
2022-08-29T23:13:37.242Z,0.30
2022-08-29T23:18:39.726Z,0.20
2022-08-29T23:23:41.485Z,0.10
2022-08-29T23:28:43.347Z,0.15
2022-08-29T23:33:44.993Z,0.30
2022-08-29T23:38:46.787Z,0.20
2022-08-29T23:43:52.046Z,0.20
2022-08-29T23:48:54.189Z,0.10
2022-08-29T23:53:55.801Z,0.20
2022-08-29T23:58:57.432Z,0.20
